Time;durP1;ratioP1;P1;durP2;ratioP2;P2;SDS_P1;SDS_P2;PMS_P1;PMS_P2;Temp;Humidity;BMP_temperature;BMP_pressure;BME280_temperature;BME280_humidity;BME280_pressure;Samples;Min_cycle;Max_cycle;Signal;HPM_P1;HPM_P2
2021/09/23 09:01:32;;;;;;;2.53;1.50;;;;;;;7.30;77.28;99711.92;370830;142;879605;-57
2021/09/23 09:02:30;;;;;;;2.68;1.41;;;;;;;7.25;77.57;99711.06;362359;146;856436;-58
2021/09/23 09:03:33;;;;;;;1.86;1.15;;;;;;;7.32;77.45;99710.21;362995;147;856114;-58
2021/09/23 09:04:34;;;;;;;1.78;1.14;;;;;;;7.45;77.46;99708.53;363682;147;856312;-58
2021/09/23 09:05:37;;;;;;;1.57;1.25;;;;;;;7.62;77.59;99713.70;363776;147;856921;-58
2021/09/23 09:06:52;;;;;;;1.34;1.09;;;;;;;7.72;76.04;99711.97;362589;147;863818;-59
2021/09/23 09:08:05;;;;;;;0.95;0.73;;;;;;;7.93;75.93;99720.55;354073;147;856832;-59
2021/09/23 09:09:13;;;;;;;1.05;0.84;;;;;;;8.19;75.15;99703.34;364295;146;856678;-56
2021/09/23 09:10:14;;;;;;;1.48;0.83;;;;;;;8.47;75.95;99705.84;362575;147;856415;-57
2021/09/23 09:11:16;;;;;;;1.47;0.99;;;;;;;8.71;75.56;99701.48;363344;147;856662;-56
2021/09/23 09:12:18;;;;;;;1.01;0.85;;;;;;;8.76;72.27;99711.81;363625;146;856938;-56
2021/09/23 09:13:19;;;;;;;1.56;0.83;;;;;;;8.90;71.97;99704.85;362929;146;863866;-57
2021/09/23 09:14:24;;;;;;;0.74;0.70;;;;;;;8.95;69.96;99701.39;363147;147;863708;-57
2021/09/23 09:15:34;;;;;;;3.24;0.89;;;;;;;8.98;69.52;99702.22;364123;146;863779;-57
2021/09/23 09:16:40;;;;;;;0.92;0.82;;;;;;;9.18;70.48;99709.02;362529;146;857245;-57
2021/09/23 09:17:41;;;;;;;2.67;0.75;;;;;;;9.19;69.20;99703.83;356251;148;856279;-57
2021/09/23 09:18:43;;;;;;;1.16;0.93;;;;;;;9.32;69.43;99704.63;356392;147;863805;-58
2021/09/23 09:19:47;;;;;;;1.03;0.93;;;;;;;;;;363744;147;856379;-57
2021/09/23 09:20:50;;;;;;;1.00;0.90;;;;;;;;;;362145;147;856307;-57
2021/09/23 09:21:51;;;;;;;1.28;0.96;;;;;;;;;;363669;147;863741;-57
2021/09/23 09:22:53;;;;;;;2.47;1.06;;;;;;;;;;363064;147;863699;-57
2021/09/23 09:23:56;;;;;;;0.69;0.68;;;;;;;;;;361937;147;856292;-57
2021/09/23 09:25:05;;;;;;;1.69;1.15;;;;;;;;;;360942;147;856625;-57
2021/09/23 09:26:07;;;;;;;1.59;1.15;;;;;;;;;;363319;147;856190;-57
2021/09/23 09:27:11;;;;;;;2.36;1.40;;;;;;;;;;364515;146;856229;-57
2021/09/23 09:28:15;;;;;;;1.22;1.12;;;;;;;;;;364349;146;856402;-57
2021/09/23 09:29:17;;;;;;;1.65;1.24;;;;;;;;;;363568;147;856454;-57
2021/09/23 09:30:21;;;;;;;1.57;1.08;;;;;;;;;;363560;147;856362;-58
2021/09/23 09:31:23;;;;;;;1.66;1.07;;;;;;;;;;361824;147;856693;-57
2021/09/23 09:32:39;;;;;;;3.81;1.27;;;;;;;;;;364312;147;856203;-57
2021/09/23 09:33:41;;;;;;;1.55;1.10;;;;;;;;;;363608;146;856708;-57
2021/09/23 09:34:45;;;;;;;1.48;1.21;;;;;;;;;;363295;146;856182;-57
2021/09/23 09:35:46;;;;;;;1.34;1.03;;;;;;;;;;361883;147;856815;-57
2021/09/23 09:36:52;;;;;;;1.03;0.97;;;;;;;;;;363305;147;856226;-57
2021/09/23 09:37:54;;;;;;;2.86;1.46;;;;;;;;;;363316;146;856688;-57
2021/09/23 09:38:57;;;;;;;2.67;1.55;;;;;;;;;;363547;146;857399;-57
2021/09/23 09:49:41;;;;;;;2.37;1.86;;;;;;;9.93;64.47;99696.39;370220;142;882614;-56
2021/09/23 09:50:44;;;;;;;2.65;1.77;;;;;;;9.92;64.31;99703.28;358111;148;856317;-57
2021/09/23 09:51:53;;;;;;;1.99;1.55;;;;;;;10.06;66.19;99704.88;357712;147;864102;-56
2021/09/23 09:53:00;;;;;;;2.62;2.18;;;;;;;10.19;66.29;99697.86;362462;146;863816;-57
2021/09/23 09:54:02;;;;;;;2.03;1.63;;;;;;;10.29;65.49;99701.22;363623;145;856232;-57
2021/09/23 09:55:08;;;;;;;2.32;1.42;;;;;;;10.34;65.67;99700.28;363322;146;856107;-57
2021/09/23 09:56:21;;;;;;;2.97;2.13;;;;;;;10.40;66.43;99698.53;363803;145;856467;-57
2021/09/23 09:57:25;;;;;;;3.37;2.09;;;;;;;10.43;66.29;99699.38;363045;145;856305;-57
2021/09/23 09:58:27;;;;;;;3.66;2.08;;;;;;;10.47;65.71;99697.58;363740;146;856305;-57
2021/09/23 09:59:29;;;;;;;3.72;2.03;;;;;;;10.49;65.62;99670.83;363096;145;856589;-57
2021/09/23 10:00:32;;;;;;;3.72;2.54;;;;;;;10.49;65.62;99670.83;361968;145;856295;-58
2021/09/23 10:01:34;;;;;;;2.73;1.78;;;;;;;10.50;64.92;99706.19;364698;145;857298;-58
2021/09/23 10:02:36;;;;;;;3.16;2.41;;;;;;;10.44;64.31;99701.08;363923;145;857397;-57
2021/09/23 10:03:38;;;;;;;2.24;1.93;;;;;;;10.44;65.32;99705.39;362448;145;863528;-57
2021/09/23 10:04:40;;;;;;;2.65;1.68;;;;;;;10.43;65.50;99701.95;364927;145;865340;-54
2021/09/23 10:05:43;;;;;;;3.34;1.93;;;;;;;10.38;65.65;99701.96;363630;145;865628;-57
2021/09/23 10:06:46;;;;;;;2.93;1.89;;;;;;;10.38;65.65;99701.96;363947;146;856244;-57
2021/09/23 10:07:50;;;;;;;2.41;1.65;;;;;;;10.26;66.14;99698.67;358385;146;857789;-57
2021/09/23 10:08:52;;;;;;;1.84;1.44;;;;;;;10.18;66.35;99699.61;355285;147;857338;-57
2021/09/23 10:09:55;;;;;;;2.35;1.42;;;;;;;10.12;66.74;99704.84;354889;146;857290;-59
2021/09/23 10:10:58;;;;;;;2.76;1.94;;;;;;;10.05;66.74;99696.27;355679;146;856737;-57
2021/09/23 10:11:59;;;;;;;2.54;1.43;;;;;;;9.98;66.39;99704.97;355713;147;857092;-56
2021/09/23 10:13:01;;;;;;;2.34;1.80;;;;;;;9.93;66.85;99701.56;355902;146;856703;-56
2021/09/23 10:14:03;;;;;;;2.58;1.77;;;;;;;9.86;66.87;99708.50;356467;147;863822;-57
2021/09/23 10:15:06;;;;;;;2.21;1.66;;;;;;;9.79;67.57;99701.67;354873;146;856280;-57
2021/09/23 10:16:09;;;;;;;2.51;2.10;;;;;;;9.72;67.80;99705.19;355419;147;856765;-56
2021/09/23 10:17:11;;;;;;;2.32;1.99;;;;;;;9.50;66.59;99706.20;351007;150;856438;-56
2021/09/23 10:18:12;;;;;;;2.09;1.57;;;;;;;9.41;66.68;99701.09;351094;150;857111;-56
2021/09/23 10:19:14;;;;;;;1.87;1.51;;;;;;;9.38;66.40;99710.61;353805;148;856493;-56
2021/09/23 10:20:18;;;;;;;3.07;1.71;;;;;;;9.29;66.61;99708.94;354511;146;864011;-56
2021/09/23 10:21:20;;;;;;;1.43;1.20;;;;;;;9.24;65.95;99698.65;354582;147;864173;-57
2021/09/23 10:22:22;;;;;;;1.39;1.29;;;;;;;9.24;66.40;99706.40;354452;147;856691;-56
2021/09/23 10:23:28;;;;;;;1.78;0.89;;;;;;;9.21;67.06;99707.26;355144;146;865951;-55
2021/09/23 10:24:27;;;;;;;1.55;1.07;;;;;;;9.17;66.31;99709.89;357061;149;865000;-57
2021/09/23 10:25:32;;;;;;;1.24;1.14;;;;;;;9.06;66.49;99703.06;360182;146;865730;-56
2021/09/23 10:26:36;;;;;;;1.07;0.95;;;;;;;8.96;66.63;99708.27;354390;148;863885;-57
2021/09/23 10:28:58;;;;;;;1.33;1.06;;;;;;;;;;355047;147;863776;-57
2021/09/23 10:29:59;;;;;;;0.93;0.85;;;;;;;;;;355553;147;856922;-56
2021/09/23 10:31:04;;;;;;;1.27;0.90;;;;;;;;;;356871;147;856096;-56
2021/09/23 10:32:05;;;;;;;1.58;0.98;;;;;;;;;;350835;153;856158;-56
2021/09/23 10:33:07;;;;;;;1.19;0.93;;;;;;;;;;351594;149;856392;-57
2021/09/23 10:34:11;;;;;;;0.96;0.87;;;;;;;;;;356850;146;856159;-57
2021/09/23 10:35:14;;;;;;;1.18;0.99;;;;;;;;;;354779;146;857932;-56
2021/09/23 10:36:16;;;;;;;1.11;0.85;;;;;;;;;;354382;147;865399;-56
2021/09/23 10:37:18;;;;;;;1.43;1.13;;;;;;;;;;355369;146;858239;-57
2021/09/23 10:38:19;;;;;;;1.01;0.91;;;;;;;;;;349457;151;858818;-57
2021/09/23 10:39:21;;;;;;;1.21;0.99;;;;;;;;;;347538;152;866105;-56
2021/09/23 10:40:24;;;;;;;0.94;0.79;;;;;;;;;;349377;152;859916;-57
2021/09/23 10:41:26;;;;;;;3.35;0.78;;;;;;;;;;355168;148;860476;-57
2021/09/23 10:42:27;;;;;;;1.25;0.88;;;;;;;;;;350516;150;858877;-57
2021/09/23 10:43:49;;;;;;;1.06;0.84;;;;;;;;;;350511;149;857417;-56
2021/09/23 10:44:52;;;;;;;1.33;1.09;;;;;;;;;;352843;150;864869;-57
2021/09/23 10:45:54;;;;;;;3.42;1.04;;;;;;;;;;353021;149;857347;-57
2021/09/23 10:46:55;;;;;;;0.97;0.82;;;;;;;;;;353265;150;857386;-56
2021/09/23 10:48:00;;;;;;;2.08;1.10;;;;;;;;;;341546;152;857308;-57
2021/09/23 10:49:03;;;;;;;1.34;0.91;;;;;;;;;;339897;152;863917;-57
2021/09/23 10:50:06;;;;;;;1.75;0.84;;;;;;;;;;346326;152;861761;-56
2021/09/23 10:51:09;;;;;;;1.29;0.95;;;;;;;;;;346710;152;864933;-57
2021/09/23 10:52:11;;;;;;;1.98;0.88;;;;;;;;;;346249;152;867658;-57
2021/09/23 10:53:12;;;;;;;2.33;0.97;;;;;;;;;;346724;152;857471;-57
2021/09/23 10:54:22;;;;;;;2.39;0.91;;;;;;;;;;346148;152;860329;-58
2021/09/23 10:55:17;;;;;;;1.36;0.93;;;;;;;;;;345879;152;866208;-58
2021/09/23 10:56:20;;;;;;;1.44;1.06;;;;;;;;;;340219;155;857572;-56
2021/09/23 10:57:22;;;;;;;2.10;1.15;;;;;;;;;;340095;152;857843;-56
2021/09/23 10:58:24;;;;;;;2.19;1.06;;;;;;;;;;346307;152;857387;-56
2021/09/23 10:59:26;;;;;;;2.91;1.19;;;;;;;;;;340327;154;865150;-56
2021/09/23 11:00:30;;;;;;;1.62;1.03;;;;;;;;;;339544;155;866361;-56
2021/09/23 11:01:33;;;;;;;1.22;0.96;;;;;;;;;;340346;153;858730;-58
2021/09/23 11:02:34;;;;;;;2.27;1.29;;;;;;;;;;344552;152;857794;-57
2021/09/23 11:03:36;;;;;;;1.42;0.99;;;;;;;;;;341730;155;859218;-57
2021/09/23 11:04:38;;;;;;;1.39;0.89;;;;;;;;;;339344;155;857618;-57
2021/09/23 11:05:41;;;;;;;1.51;0.96;;;;;;;;;;339557;155;856299;-58
2021/09/23 11:06:43;;;;;;;1.12;0.84;;;;;;;;;;333152;156;858752;-58
2021/09/23 11:07:44;;;;;;;1.55;1.04;;;;;;;;;;337678;156;856233;-56
2021/09/23 11:08:47;;;;;;;1.38;0.99;;;;;;;;;;334451;158;859843;-56
2021/09/23 11:10:04;;;;;;;1.48;1.12;;;;;;;;;;333883;158;864404;-58
2021/09/23 11:11:07;;;;;;;0.93;0.73;;;;;;;;;;341155;152;857127;-58
2021/09/23 11:12:09;;;;;;;1.51;1.23;;;;;;;;;;345789;152;856135;-57
2021/09/23 11:13:11;;;;;;;1.62;1.13;;;;;;;;;;346467;152;864062;-58
2021/09/23 11:14:13;;;;;;;2.21;1.05;;;;;;;;;;346001;152;858686;-58
2021/09/23 11:15:15;;;;;;;1.96;0.93;;;;;;;;;;346609;152;857312;-57
2021/09/23 11:16:17;;;;;;;3.83;1.18;;;;;;;;;;346588;152;856501;-58
2021/09/23 11:17:20;;;;;;;1.79;1.31;;;;;;;;;;338764;155;856372;-60
2021/09/23 11:18:22;;;;;;;1.20;1.10;;;;;;;;;;333449;155;864010;-57
2021/09/23 11:19:24;;;;;;;1.35;0.81;;;;;;;;;;339968;155;863731;-57
2021/09/23 11:20:29;;;;;;;1.73;1.43;;;;;;;;;;345582;152;856984;-57
2021/09/23 11:21:31;;;;;;;1.63;1.30;;;;;;;;;;347562;152;857781;-58
2021/09/23 11:22:34;;;;;;;1.59;1.41;;;;;;;;;;339642;155;857422;-57
2021/09/23 11:23:35;;;;;;;1.31;1.20;;;;;;;;;;339467;155;865877;-58
2021/09/23 11:24:37;;;;;;;2.76;1.15;;;;;;;;;;345827;152;856389;-57
2021/09/23 11:25:41;;;;;;;1.29;1.07;;;;;;;;;;337426;156;863915;-57
2021/09/23 11:26:43;;;;;;;2.38;1.16;;;;;;;;;;334500;158;863913;-57
2021/09/23 11:27:46;;;;;;;1.95;1.67;;;;;;;;;;340154;155;856205;-57
2021/09/23 11:28:47;;;;;;;1.99;1.49;;;;;;;;;;346184;152;857060;-58
2021/09/23 11:29:49;;;;;;;2.41;1.44;;;;;;;;;;346436;152;864111;-57
2021/09/23 11:30:53;;;;;;;2.18;1.49;;;;;;;;;;346332;152;863891;-55
2021/09/23 11:31:55;;;;;;;2.04;1.69;;;;;;;;;;346259;152;856809;-55
2021/09/23 11:33:00;;;;;;;4.95;1.63;;;;;;;;;;346426;152;863920;-57
2021/09/23 11:34:02;;;;;;;3.17;1.49;;;;;;;;;;345657;152;856308;-58
2021/09/23 11:35:05;;;;;;;1.34;1.24;;;;;;;;;;340241;155;856630;-58
2021/09/23 11:36:07;;;;;;;1.82;1.31;;;;;;;;;;347153;152;863749;-58
2021/09/23 11:37:09;;;;;;;4.28;1.40;;;;;;;;;;346342;153;856127;-57
2021/09/23 11:38:11;;;;;;;1.52;1.19;;;;;;;;;;346159;152;857118;-57
2021/09/23 11:39:17;;;;;;;1.28;1.03;;;;;;;;;;345916;152;856364;-56
2021/09/23 11:40:22;;;;;;;1.14;0.83;;;;;;;;;;348120;152;856778;-56
2021/09/23 11:41:26;;;;;;;1.77;1.27;;;;;;;;;;345922;151;856233;-57
2021/09/23 11:42:34;;;;;;;1.27;1.15;;;;;;;;;;346186;152;864442;-56
2021/09/23 11:43:37;;;;;;;2.06;1.10;;;;;;;;;;345965;152;856451;-57
2021/09/23 11:44:39;;;;;;;0.82;0.77;;;;;;;;;;347487;152;857078;-56
2021/09/23 11:45:41;;;;;;;1.34;1.12;;;;;;;;;;345083;152;857112;-56
2021/09/23 11:46:43;;;;;;;0.79;0.79;;;;;;;;;;344662;153;864329;-57
2021/09/23 11:47:45;;;;;;;2.26;1.11;;;;;;;;;;344975;153;856187;-56
2021/09/23 11:48:47;;;;;;;1.33;1.15;;;;;;;;;;344746;153;858875;-56
2021/09/23 11:49:49;;;;;;;0.86;0.84;;;;;;;;;;344656;153;856341;-56
2021/09/23 11:50:51;;;;;;;1.13;0.99;;;;;;;;;;345377;153;857019;-57
2021/09/23 11:51:54;;;;;;;2.29;1.23;;;;;;;;;;344455;153;856171;-56
2021/09/23 11:52:58;;;;;;;1.62;1.16;;;;;;;;;;345129;153;856594;-56
2021/09/23 11:53:59;;;;;;;1.14;0.95;;;;;;;;;;344094;153;856674;-55
2021/09/23 11:55:01;;;;;;;2.01;1.19;;;;;;;;;;343017;153;856131;-55
2021/09/23 11:56:04;;;;;;;1.90;1.23;;;;;;;;;;344760;153;862253;-56
2021/09/23 11:57:05;;;;;;;1.23;1.02;;;;;;;;;;345075;153;864480;-56
2021/09/23 11:58:13;;;;;;;1.82;1.00;;;;;;;;;;346070;153;856173;-56
2021/09/23 11:59:19;;;;;;;1.58;1.17;;;;;;;;;;344899;153;863957;-56
2021/09/23 12:00:22;;;;;;;1.70;1.05;;;;;;;;;;344489;153;856422;-57
2021/09/23 12:01:24;;;;;;;0.95;0.80;;;;;;;;;;338069;156;857220;-57
2021/09/23 12:02:26;;;;;;;1.45;1.06;;;;;;;;;;338124;153;857027;-55
2021/09/23 12:03:27;;;;;;;1.34;1.13;;;;;;;;;;344672;154;863748;-57
2021/09/23 12:04:32;;;;;;;3.76;1.20;;;;;;;;;;344168;154;856320;-55
2021/09/23 12:05:32;;;;;;;1.16;0.93;;;;;;;;;;345311;153;863437;-57
2021/09/23 12:06:34;;;;;;;1.01;0.71;;;;;;;;;;344937;156;856367;-57
2021/09/23 12:07:42;;;;;;;2.91;1.04;;;;;;;;;;344689;153;856247;-57
2021/09/23 12:08:44;;;;;;;1.28;1.04;;;;;;;;;;343829;154;863749;-57
2021/09/23 12:10:02;;;;;;;0.94;0.87;;;;;;;;;;344417;153;856370;-55
2021/09/23 12:11:05;;;;;;;2.97;1.16;;;;;;;;;;343804;154;863829;-56
2021/09/23 12:12:07;;;;;;;1.34;1.04;;;;;;;;;;344471;153;856523;-57
2021/09/23 12:13:09;;;;;;;1.90;1.26;;;;;;;;;;344510;153;856152;-57
2021/09/23 12:14:11;;;;;;;1.00;0.89;;;;;;;;;;347622;153;862350;-55
2021/09/23 12:15:12;;;;;;;1.42;1.09;;;;;;;;;;337770;156;856355;-57
2021/09/23 12:16:15;;;;;;;1.55;1.07;;;;;;;;;;332107;158;856869;-56
2021/09/23 12:17:17;;;;;;;1.14;1.04;;;;;;;;;;335229;156;863976;-56
2021/09/23 12:18:20;;;;;;;1.34;0.97;;;;;;;;;;342927;153;856330;-57
2021/09/23 12:19:21;;;;;;;1.31;0.90;;;;;;;;;;341139;155;858945;-56
2021/09/23 12:20:36;;;;;;;1.63;1.00;;;;;;;;;;339006;156;856772;-57
2021/09/23 12:21:37;;;;;;;1.58;0.91;;;;;;;;;;344781;153;863612;-56
2021/09/23 12:22:39;;;;;;;1.58;1.13;;;;;;;;;;344622;154;857652;-56
2021/09/23 12:23:41;;;;;;;1.69;1.21;;;;;;;;;;344086;153;863903;-55
2021/09/23 12:24:43;;;;;;;1.69;1.29;;;;;;;;;;340073;155;863890;-56
2021/09/23 12:25:46;;;;;;;1.98;1.40;;;;;;;;;;337665;157;856384;-55
2021/09/23 12:26:48;;;;;;;1.60;1.30;;;;;;;;;;336185;157;864006;-55
2021/09/23 12:27:49;;;;;;;2.56;1.48;;;;;;;;;;337210;156;863903;-56
2021/09/23 12:28:52;;;;;;;1.99;1.32;;;;;;;;;;338834;155;856234;-56
2021/09/23 12:29:55;;;;;;;2.34;1.08;;;;;;;;;;339581;156;864019;-57
2021/09/23 12:31:00;;;;;;;3.32;1.24;;;;;;;;;;339670;156;856206;-56
2021/09/23 12:32:03;;;;;;;1.64;0.93;;;;;;;;;;337541;156;856736;-56
2021/09/23 12:33:07;;;;;;;1.62;1.20;;;;;;;;;;337488;156;856891;-57
2021/09/23 12:34:15;;;;;;;1.26;1.15;;;;;;;;;;335227;157;856840;-57
2021/09/23 12:35:17;;;;;;;2.06;1.37;;;;;;;;;;337240;157;857050;-61
2021/09/23 12:36:20;;;;;;;1.95;1.27;;;;;;;;;;337556;156;856602;-61
2021/09/23 12:37:22;;;;;;;3.27;1.27;;;;;;;;;;331698;159;857027;-57
2021/09/23 12:38:25;;;;;;;2.01;1.08;;;;;;;;;;337787;156;856243;-56
2021/09/23 12:39:44;;;;;;;1.72;1.44;;;;;;;;;;337786;156;856236;-56
2021/09/23 12:40:46;;;;;;;1.89;1.53;;;;;;;;;;339794;155;856681;-55
2021/09/23 12:41:55;;;;;;;2.41;1.74;;;;;;;;;;331410;159;857120;-56
2021/09/23 12:42:57;;;;;;;1.82;1.15;;;;;;;;;;339625;156;863806;-55
2021/09/23 12:44:05;;;;;;;2.69;1.39;;;;;;;;;;341831;155;856707;-55
2021/09/23 12:45:11;;;;;;;2.94;1.48;;;;;;;;;;339235;155;863883;-56
2021/09/23 12:46:14;;;;;;;2.42;1.33;;;;;;;;;;344485;153;856365;-55
2021/09/23 12:47:16;;;;;;;2.46;1.59;;;;;;;;;;345179;153;856734;-56
2021/09/23 12:48:18;;;;;;;1.70;1.27;;;;;;;;;;345186;153;863965;-57
2021/09/23 12:49:20;;;;;;;1.80;1.19;;;;;;;;;;345761;153;856244;-58
2021/09/23 12:50:24;;;;;;;1.51;1.01;;;;;;;;;;345351;152;856180;-57
2021/09/23 12:51:35;;;;;;;2.68;1.21;;;;;;;;;;345266;152;863941;-57
2021/09/23 12:52:37;;;;;;;2.47;1.54;;;;;;;;;;344962;153;856328;-57
2021/09/23 12:53:39;;;;;;;1.63;1.49;;;;;;;;;;345423;152;856602;-57
2021/09/23 12:54:47;;;;;;;2.66;1.38;;;;;;;;;;344828;153;864264;-57
2021/09/23 12:55:49;;;;;;;3.22;1.36;;;;;;;;;;344597;153;860270;-57
2021/09/23 12:57:05;;;;;;;1.91;1.08;;;;;;;;;;345376;153;856878;-57
2021/09/23 12:58:10;;;;;;;1.54;1.22;;;;;;;;;;344568;153;856822;-57
2021/09/23 12:59:16;;;;;;;2.47;1.44;;;;;;;;;;345877;152;857432;-57
2021/09/23 13:00:20;;;;;;;1.61;1.06;;;;;;;;;;345543;152;856315;-56
2021/09/23 13:01:24;;;;;;;1.84;1.36;;;;;;;;;;345158;152;856242;-57
2021/09/23 13:02:25;;;;;;;2.06;1.55;;;;;;;;;;344717;153;856168;-58
2021/09/23 13:03:29;;;;;;;3.03;1.71;;;;;;;;;;345131;153;856490;-57
2021/09/23 13:04:30;;;;;;;3.10;1.95;;;;;;;;;;339110;155;864021;-58
2021/09/23 13:05:32;;;;;;;1.86;1.55;;;;;;;;;;345429;152;856334;-58
2021/09/23 13:06:34;;;;;;;1.65;1.33;;;;;;;;;;344617;153;856448;-57
2021/09/23 13:07:39;;;;;;;2.82;1.91;;;;;;;;;;345005;152;856822;-57
2021/09/23 13:08:42;;;;;;;2.41;1.25;;;;;;;;;;344531;151;856179;-57
2021/09/23 13:10:00;;;;;;;1.92;1.29;;;;;;;;;;347085;152;856313;-57
2021/09/23 13:11:05;;;;;;;1.99;1.57;;;;;;;;;;344966;153;856564;-57
2021/09/23 13:12:13;;;;;;;3.31;1.72;;;;;;;;;;345221;153;856797;-58
2021/09/23 13:13:17;;;;;;;1.88;1.60;;;;;;;;;;345209;153;856830;-58
2021/09/23 13:14:21;;;;;;;2.41;1.50;;;;;;;;;;345141;153;856706;-58
2021/09/23 13:15:24;;;;;;;1.83;1.46;;;;;;;;;;345087;153;856960;-58
2021/09/23 13:16:38;;;;;;;2.91;1.79;;;;;;;;;;345321;153;856212;-57
2021/09/23 13:17:39;;;;;;;1.92;1.34;;;;;;;;;;345134;153;856758;-58
2021/09/23 13:18:41;;;;;;;5.27;1.53;;;;;;;;;;345197;153;856933;-59
2021/09/23 13:19:42;;;;;;;1.29;1.19;;;;;;;;;;345664;153;864816;-59
2021/09/23 13:20:50;;;;;;;1.52;1.30;;;;;;;;;;344540;153;864563;-58
2021/09/23 13:21:52;;;;;;;5.84;1.58;;;;;;;;;;344756;153;856501;-58
2021/09/23 13:22:54;;;;;;;2.38;1.03;;;;;;;;;;345403;153;857104;-58
2021/09/23 13:23:55;;;;;;;1.43;0.85;;;;;;;;;;345536;153;856687;-57
2021/09/23 13:24:57;;;;;;;1.14;1.04;;;;;;;;;;345333;153;856204;-61
2021/09/23 13:26:03;;;;;;;1.72;1.42;;;;;;;;;;345055;153;856679;-59
2021/09/23 13:27:05;;;;;;;1.78;1.30;;;;;;;;;;345527;153;858923;-58
2021/09/23 13:28:14;;;;;;;3.04;1.33;;;;;;;;;;345270;153;856510;-58
2021/09/23 13:29:16;;;;;;;3.31;1.41;;;;;;;;;;344823;153;857096;-58
2021/09/23 13:30:18;;;;;;;1.79;1.28;;;;;;;;;;345076;153;857248;-59
2021/09/23 13:31:23;;;;;;;1.86;1.16;;;;;;;;;;339013;156;863919;-58
2021/09/23 13:32:24;;;;;;;1.12;1.02;;;;;;;;;;344622;152;863793;-57
2021/09/23 13:33:26;;;;;;;1.35;1.08;;;;;;;;;;339497;156;856359;-58
2021/09/23 13:34:28;;;;;;;1.34;1.17;;;;;;;;;;345714;153;863860;-58
2021/09/23 13:35:29;;;;;;;1.47;0.88;;;;;;;;;;344700;153;856436;-57
2021/09/23 13:36:31;;;;;;;1.88;1.05;;;;;;;;;;345893;153;863789;-60
2021/09/23 13:37:33;;;;;;;1.07;0.86;;;;;;;;;;338834;158;856747;-61
2021/09/23 13:38:34;;;;;;;1.74;0.94;;;;;;;;;;345488;153;857069;-61
2021/09/23 13:39:36;;;;;;;1.84;1.20;;;;;;;;;;345797;153;856576;-61
2021/09/23 13:40:37;;;;;;;2.13;1.22;;;;;;;;;;342972;155;863729;-58
2021/09/23 13:41:39;;;;;;;2.51;1.16;;;;;;;;;;345634;153;863915;-56
2021/09/23 13:42:41;;;;;;;3.07;0.88;;;;;;;;;;345124;153;857005;-57
2021/09/23 13:43:43;;;;;;;1.24;0.86;;;;;;;;;;345844;153;863487;-57
2021/09/23 13:44:45;;;;;;;1.31;1.02;;;;;;;;;;345371;153;856169;-55
2021/09/23 13:45:47;;;;;;;4.04;1.18;;;;;;;;;;327964;160;857038;-57
2021/09/23 13:46:49;;;;;;;1.79;1.06;;;;;;;;;;326180;157;857127;-57
2021/09/23 13:47:51;;;;;;;1.22;1.01;;;;;;;;;;343946;153;863988;-57
2021/09/23 13:48:52;;;;;;;1.54;1.08;;;;;;;;;;342590;154;856315;-57
2021/09/23 13:49:54;;;;;;;1.68;0.93;;;;;;;;;;337343;156;863847;-57
2021/09/23 13:50:56;;;;;;;1.83;1.11;;;;;;;;;;331710;159;856290;-57
2021/09/23 13:51:58;;;;;;;2.15;1.17;;;;;;;;;;331136;159;856275;-57
2021/09/23 13:53:00;;;;;;;2.50;1.02;;;;;;;;;;337785;156;856568;-57
2021/09/23 13:54:03;;;;;;;1.35;1.09;;;;;;;;;;333072;159;856866;-57
2021/09/23 13:55:05;;;;;;;2.35;1.32;;;;;;;;;;330105;159;863802;-57
2021/09/23 13:56:06;;;;;;;2.20;1.06;;;;;;;;;;339257;155;856822;-58
2021/09/23 13:57:08;;;;;;;3.79;2.72;;;;;;;;;;339920;155;856713;-57
2021/09/23 13:58:10;;;;;;;1.88;1.11;;;;;;;;;;338150;155;863957;-57
2021/09/23 13:59:11;;;;;;;0.99;0.92;;;;;;;;;;338171;155;864189;-57
2021/09/23 14:00:14;;;;;;;1.78;1.15;;;;;;;;;;339064;155;856363;-57
2021/09/23 14:01:16;;;;;;;2.65;1.15;;;;;;;;;;338465;155;856448;-57
2021/09/23 14:02:17;;;;;;;1.61;0.90;;;;;;;;;;340204;157;856709;-57
2021/09/23 14:03:19;;;;;;;1.94;1.49;;;;;;;;;;339338;155;864685;-57
2021/09/23 14:04:20;;;;;;;1.29;0.93;;;;;;;;;;339359;157;856587;-57
2021/09/23 14:05:22;;;;;;;1.25;1.09;;;;;;;;;;337756;155;856680;-57
2021/09/23 14:06:24;;;;;;;2.74;0.98;;;;;;;;;;337313;155;863772;-57
2021/09/23 14:07:25;;;;;;;3.40;1.37;;;;;;;;;;339051;155;856407;-57
2021/09/23 14:08:27;;;;;;;1.55;1.17;;;;;;;;;;339103;157;856125;-56
2021/09/23 14:09:29;;;;;;;3.50;1.99;;;;;;;;;;338161;156;863776;-57
2021/09/23 14:10:31;;;;;;;3.45;1.50;;;;;;;;;;339480;156;856207;-57
2021/09/23 14:11:33;;;;;;;2.46;1.32;;;;;;;;;;339076;155;856678;-57
2021/09/23 14:12:37;;;;;;;2.19;1.56;;;;;;;;;;338962;155;856746;-57
2021/09/23 14:13:39;;;;;;;3.75;1.50;;;;;;;;;;339314;155;857001;-57
2021/09/23 14:14:40;;;;;;;3.24;1.65;;;;;;;;;;339649;155;856656;-57
2021/09/23 14:15:42;;;;;;;1.67;1.28;;;;;;;;;;339306;155;863640;-57
2021/09/23 14:16:43;;;;;;;1.44;1.24;;;;;;;;;;338809;155;856942;-56
2021/09/23 14:17:45;;;;;;;3.28;1.46;;;;;;;;;;339381;155;863937;-57
2021/09/23 14:18:49;;;;;;;2.25;1.98;;;;;;;;;;338982;155;863892;-56
2021/09/23 14:19:50;;;;;;;2.29;1.67;;;;;;;;;;338517;155;856389;-57
2021/09/23 14:20:52;;;;;;;2.34;1.59;;;;;;;;;;331571;159;856914;-57
2021/09/23 14:21:54;;;;;;;3.37;1.56;;;;;;;;;;338567;155;856340;-57
2021/09/23 14:22:55;;;;;;;6.17;1.61;;;;;;;;;;338944;155;863645;-57
2021/09/23 14:23:57;;;;;;;2.30;1.52;;;;;;;;;;338520;155;856197;-57
2021/09/23 14:24:59;;;;;;;1.94;1.57;;;;;;;;;;338809;155;865055;-57
2021/09/23 14:26:00;;;;;;;2.45;1.74;;;;;;;;;;332489;158;864787;-57
2021/09/23 14:27:02;;;;;;;2.16;1.34;;;;;;;;;;336401;156;857269;-57
2021/09/23 14:28:05;;;;;;;3.06;1.99;;;;;;;;;;344594;153;856737;-57
2021/09/23 14:29:06;;;;;;;3.43;1.54;;;;;;;;;;344376;153;856669;-57
2021/09/23 14:30:08;;;;;;;1.56;1.34;;;;;;;;;;343841;153;856875;-57
2021/09/23 14:31:10;;;;;;;2.48;1.37;;;;;;;;;;343339;153;864138;-57
2021/09/23 14:32:12;;;;;;;3.23;1.54;;;;;;;;;;343319;153;856628;-57
2021/09/23 14:33:13;;;;;;;2.59;1.67;;;;;;;;;;343074;153;857989;-57
2021/09/23 14:34:15;;;;;;;2.34;1.92;;;;;;;;;;343841;153;856769;-56
2021/09/23 14:35:17;;;;;;;3.42;1.75;;;;;;;;;;344327;153;856352;-57
2021/09/23 14:36:19;;;;;;;3.31;2.05;;;;;;;;;;343216;153;856660;-57
2021/09/23 14:37:21;;;;;;;3.99;2.04;;;;;;;;;;344080;153;863559;-55
2021/09/23 14:38:22;;;;;;;4.82;2.30;;;;;;;;;;344598;153;856622;-57
2021/09/23 14:39:24;;;;;;;4.48;1.74;;;;;;;;;;344299;153;857787;-57
2021/09/23 14:40:32;;;;;;;4.70;2.04;;;;;;;;;;344232;153;863777;-57
2021/09/23 14:41:32;;;;;;;2.32;1.66;;;;;;;;;;343102;153;863732;-58
2021/09/23 14:42:33;;;;;;;2.72;1.76;;;;;;;;;;344217;153;856654;-58
2021/09/23 14:43:35;;;;;;;2.79;1.80;;;;;;;;;;343200;153;863974;-57
2021/09/23 14:44:37;;;;;;;3.37;1.65;;;;;;;;;;343736;153;863848;-57
2021/09/23 14:45:39;;;;;;;2.11;1.60;;;;;;;;;;337216;156;856326;-64
2021/09/23 14:46:40;;;;;;;2.77;1.19;;;;;;;;;;333210;156;856314;-60
2021/09/23 14:47:42;;;;;;;2.96;2.04;;;;;;;;;;340171;155;857650;-62
2021/09/23 14:48:43;;;;;;;2.80;1.71;;;;;;;;;;340883;155;863479;-62
2021/09/23 14:49:45;;;;;;;3.09;1.50;;;;;;;;;;339757;155;863450;-61
2021/09/23 14:50:47;;;;;;;3.04;1.84;;;;;;;;;;340295;155;863685;-61
2021/09/23 14:51:48;;;;;;;2.54;1.51;;;;;;;;;;336133;156;856777;-63
2021/09/23 14:52:50;;;;;;;1.97;1.21;;;;;;;;;;337787;159;864520;-63
2021/09/23 14:53:51;;;;;;;2.64;1.72;;;;;;;;;;335924;158;863957;-62
2021/09/23 14:54:53;;;;;;;3.19;1.74;;;;;;;;;;337753;156;856731;-63
2021/09/23 14:55:54;;;;;;;2.15;1.71;;;;;;;;;;337320;157;856765;-61
2021/09/23 14:56:56;;;;;;;2.14;1.49;;;;;;;;;;336888;156;857087;-62
2021/09/23 14:57:58;;;;;;;3.00;1.66;;;;;;;;;;336252;156;864064;-60
2021/09/23 14:58:59;;;;;;;2.26;1.64;;;;;;;;;;336801;156;857004;-64
2021/09/23 15:00:01;;;;;;;2.11;1.83;;;;;;;;;;337565;156;857015;-62
2021/09/23 15:01:03;;;;;;;3.11;1.71;;;;;;;;;;336812;156;863424;-62
2021/09/23 15:02:05;;;;;;;3.79;1.78;;;;;;;;;;336975;156;863703;-60
2021/09/23 15:03:06;;;;;;;4.97;2.05;;;;;;;;;;337036;156;863501;-62
2021/09/23 15:04:08;;;;;;;2.51;1.99;;;;;;;;;;336663;156;856558;-61
2021/09/23 15:05:10;;;;;;;2.21;1.51;;;;;;;;;;337292;156;863754;-60
2021/09/23 15:06:12;;;;;;;2.93;1.95;;;;;;;;;;336598;156;856386;-60
2021/09/23 15:07:13;;;;;;;5.26;1.98;;;;;;;;;;337386;156;856423;-60
2021/09/23 15:08:15;;;;;;;3.03;1.64;;;;;;;;;;336829;156;856597;-60
2021/09/23 15:09:17;;;;;;;2.92;1.84;;;;;;;;;;332192;159;864491;-60
2021/09/23 15:10:19;;;;;;;3.52;1.67;;;;;;;;;;329794;161;863761;-61